createdAt,value
2017-06-24T00:00:24.517Z,42.65
2017-06-24T00:01:24.850Z,42.65
2017-06-24T00:02:24.883Z,42.74
2017-06-24T00:03:24.910Z,42.65
2017-06-24T00:04:24.630Z,42.94
2017-06-24T00:05:24.977Z,42.55
2017-06-24T00:06:24.997Z,42.84
2017-06-24T00:07:25.035Z,42.94
2017-06-24T00:08:25.069Z,42.65
2017-06-24T00:09:25.097Z,42.82
2017-06-24T00:10:25.130Z,42.35
2017-06-24T00:11:25.157Z,42.55
2017-06-24T00:12:25.191Z,42.74
2017-06-24T00:13:25.213Z,42.55
2017-06-24T00:14:25.247Z,42.74
2017-06-24T00:15:25.285Z,42.74
2017-06-24T00:16:25.306Z,42.33
2017-06-24T00:17:25.026Z,42.43
2017-06-24T00:18:25.367Z,42.45
2017-06-24T00:19:25.401Z,42.72
2017-06-24T00:20:25.430Z,42.72
2017-06-24T00:21:25.465Z,42.53
2017-06-24T00:22:25.491Z,42.72
2017-06-24T00:23:25.208Z,43.01
2017-06-24T00:24:25.236Z,43.04
2017-06-24T00:25:25.597Z,43.13
2017-06-24T00:26:25.610Z,42.91
2017-06-24T00:27:25.643Z,43.04
2017-06-24T00:28:25.676Z,42.82
2017-06-24T00:29:25.383Z,43.01
2017-06-24T00:30:25.417Z,43.04
2017-06-24T00:31:25.769Z,43.21
2017-06-24T00:32:25.488Z,43.23
2017-06-24T00:33:25.827Z,42.91
2017-06-24T00:34:25.544Z,43.3
2017-06-24T00:35:25.881Z,43.4
2017-06-24T00:36:25.914Z,43.5
2017-06-24T00:37:25.950Z,43.21
2017-06-24T00:38:25.663Z,42.91
2017-06-24T00:39:26.005Z,43.6
2017-06-24T00:40:26.035Z,43.7
2017-06-24T00:41:26.062Z,43.11
2017-06-24T00:42:26.099Z,43.11
2017-06-24T00:43:26.128Z,43.11
2017-06-24T00:44:26.161Z,43.21
2017-06-24T00:45:26.185Z,43.21
2017-06-24T00:46:25.907Z,43.79
2017-06-24T00:47:25.935Z,43.4
2017-06-24T00:48:26.275Z,43.5
2017-06-24T00:49:26.311Z,43.01
2017-06-24T00:50:26.341Z,43.6
2017-06-24T00:51:26.371Z,43.6
2017-06-24T00:52:26.404Z,43.21
2017-06-24T00:53:26.432Z,43.21
2017-06-24T00:54:26.473Z,43.4
2017-06-24T00:55:26.492Z,43.3
2017-06-24T00:56:26.525Z,43.3
2017-06-24T00:57:26.547Z,43.5
2017-06-24T00:58:26.577Z,43.11
2017-06-24T00:59:26.301Z,43.3
2017-06-24T01:00:26.654Z,42.91
2017-06-24T01:01:26.666Z,43.01
2017-06-24T01:02:26.703Z,43.4
2017-06-24T01:03:26.736Z,43.4
2017-06-24T01:04:26.761Z,43.5
2017-06-24T01:05:26.792Z,43.4
2017-06-24T01:06:26.512Z,43.21
2017-06-24T01:07:26.854Z,43.4
2017-06-24T01:08:26.881Z,43.4
2017-06-24T01:09:26.602Z,43.4
2017-06-24T01:10:27.198Z,43.3
2017-06-24T01:11:26.659Z,43.3
2017-06-24T01:12:27.003Z,43.4
2017-06-24T01:13:27.036Z,43.6
2017-06-24T01:14:26.754Z,43.5
2017-06-24T01:15:27.082Z,44.18
2017-06-24T01:16:27.130Z,44.28
2017-06-24T01:17:26.844Z,43.99
2017-06-24T01:18:27.187Z,43.99
2017-06-24T01:19:26.900Z,43.99
2017-06-24T01:20:27.186Z,43.99
2017-06-24T01:21:27.314Z,43.99
2017-06-24T01:22:27.307Z,43.99
2017-06-24T01:23:27.332Z,43.99
2017-06-24T01:24:27.364Z,44.18
2017-06-24T01:25:27.702Z,43.79
2017-06-24T01:26:27.431Z,44.28
2017-06-24T01:27:27.144Z,44.38
2017-06-24T01:28:27.485Z,44.28
2017-06-24T01:29:27.521Z,44.57
2017-06-24T01:30:27.850Z,44.57
2017-06-24T01:31:27.576Z,44.38
2017-06-24T01:32:27.612Z,44.28
2017-06-24T01:33:27.640Z,44.28
2017-06-24T01:34:27.672Z,43.99
2017-06-24T01:35:27.639Z,44.09
2017-06-24T01:36:27.727Z,44.09
2017-06-24T01:37:27.756Z,44.18
2017-06-24T01:38:27.790Z,44.57
2017-06-24T01:39:27.821Z,44.38
2017-06-24T01:40:28.102Z,44.28
2017-06-24T01:41:27.884Z,44.28
2017-06-24T01:42:27.908Z,44.09
2017-06-24T01:43:27.941Z,44.57
2017-06-24T01:44:27.970Z,44.09
2017-06-24T01:45:27.964Z,44.09
2017-06-24T01:46:27.720Z,44.57
2017-06-24T01:47:28.064Z,44.26
2017-06-24T01:48:27.776Z,44.18
2017-06-24T01:49:27.806Z,44.26
2017-06-24T01:50:28.447Z,44.18
2017-06-24T01:51:28.179Z,44.18
2017-06-24T01:52:28.205Z,44.09
2017-06-24T01:53:27.934Z,44.09
2017-06-24T01:54:28.267Z,44.67
2017-06-24T01:55:28.551Z,44.18
2017-06-24T01:56:28.024Z,44.38
2017-06-24T01:57:28.361Z,44.65
2017-06-24T01:58:28.389Z,44.45
2017-06-24T01:59:28.423Z,44.45
2017-06-24T02:00:28.705Z,44.94
2017-06-24T02:01:28.164Z,44.55
2017-06-24T02:02:28.206Z,44.45
2017-06-24T02:03:28.546Z,44.26
2017-06-24T02:04:28.564Z,44.26
2017-06-24T02:05:28.286Z,44.16
2017-06-24T02:06:28.648Z,44.38
2017-06-24T02:07:28.667Z,44.06
2017-06-24T02:08:28.693Z,44.06
2017-06-24T02:09:28.722Z,44.45
2017-06-24T02:10:28.760Z,44.16
2017-06-24T02:11:28.780Z,44.18
2017-06-24T02:12:28.808Z,43.99
2017-06-24T02:13:28.839Z,44.16
2017-06-24T02:14:28.866Z,44.55
2017-06-24T02:15:28.906Z,44.16
2017-06-24T02:16:28.936Z,44.16
2017-06-24T02:17:28.649Z,44.26
2017-06-24T02:18:28.995Z,44.45
2017-06-24T02:19:29.023Z,44.26
2017-06-24T02:20:29.059Z,44.55
2017-06-24T02:21:28.775Z,44.57
2017-06-24T02:22:29.111Z,44.16
2017-06-24T02:23:29.147Z,44.26
2017-06-24T02:24:29.184Z,44.06
2017-06-24T02:25:29.204Z,44.35
2017-06-24T02:26:29.236Z,44.45
2017-06-24T02:27:29.269Z,44.55
2017-06-24T02:28:29.298Z,44.26
2017-06-24T02:29:29.330Z,44.45
2017-06-24T02:30:29.352Z,44.35
2017-06-24T02:31:29.393Z,44.16
2017-06-24T02:32:29.412Z,44.16
2017-06-24T02:33:29.441Z,44.06
2017-06-24T02:34:29.471Z,43.96
2017-06-24T02:35:29.508Z,43.96
2017-06-24T02:36:29.228Z,44.16
2017-06-24T02:37:29.253Z,43.96
2017-06-24T02:38:29.595Z,43.96
2017-06-24T02:39:29.628Z,43.96
2017-06-24T02:40:29.656Z,44.16
2017-06-24T02:41:29.693Z,44.16
2017-06-24T02:42:29.722Z,44.06
2017-06-24T02:43:29.751Z,44.06
2017-06-24T02:44:29.775Z,44.16
2017-06-24T02:45:29.501Z,44.16
2017-06-24T02:46:29.841Z,44.06
2017-06-24T02:47:29.559Z,43.48
2017-06-24T02:48:29.908Z,43.58
2017-06-24T02:49:29.928Z,43.96
2017-06-24T02:50:29.644Z,43.67
2017-06-24T02:51:29.994Z,43.77
2017-06-24T02:52:30.023Z,43.77
2017-06-24T02:53:30.039Z,43.67
2017-06-24T02:54:29.762Z,43.87
2017-06-24T02:55:29.797Z,43.67
2017-06-24T02:56:29.836Z,43.87
2017-06-24T02:57:30.175Z,43.77
2017-06-24T02:58:30.190Z,44.16
2017-06-24T02:59:30.228Z,43.77
2017-06-24T03:00:30.256Z,44.16
2017-06-24T03:01:29.970Z,43.87
2017-06-24T03:02:30.007Z,43.77
2017-06-24T03:03:30.360Z,44.06
2017-06-24T03:04:30.380Z,44.16
2017-06-24T03:05:30.413Z,43.67
2017-06-24T03:06:30.434Z,43.87
2017-06-24T03:07:30.158Z,44.06
2017-06-24T03:08:30.187Z,43.58
2017-06-24T03:09:30.540Z,44.06
2017-06-24T03:10:30.560Z,44.26
2017-06-24T03:11:30.589Z,44.06
2017-06-24T03:12:30.618Z,44.26
2017-06-24T03:13:30.651Z,44.26
2017-06-24T03:14:30.369Z,44.35
2017-06-24T03:15:30.705Z,44.35
2017-06-24T03:16:30.424Z,44.16
2017-06-24T03:17:30.462Z,44.26
2017-06-24T03:18:30.803Z,44.16
2017-06-24T03:19:30.837Z,44.16
2017-06-24T03:20:30.535Z,43.67
2017-06-24T03:21:31.184Z,44.35
2017-06-24T03:22:30.923Z,44.16
2017-06-24T03:23:30.957Z,44.26
2017-06-24T03:24:30.977Z,44.26
2017-06-24T03:25:30.693Z,44.06
2017-06-24T03:26:31.292Z,44.06
2017-06-24T03:27:30.759Z,44.06
2017-06-24T03:28:31.096Z,43.67
2017-06-24T03:29:30.816Z,44.06
2017-06-24T03:30:30.850Z,43.67
2017-06-24T03:31:31.487Z,44.26
2017-06-24T03:32:30.911Z,44.26
2017-06-24T03:33:31.260Z,44.26
2017-06-24T03:34:31.273Z,44.06
2017-06-24T03:35:31.306Z,44.06
2017-06-24T03:36:31.643Z,43.87
2017-06-24T03:37:31.363Z,44.06
2017-06-24T03:38:31.392Z,43.96
2017-06-24T03:39:31.433Z,44.06
2017-06-24T03:40:31.467Z,44.16
2017-06-24T03:41:31.738Z,44.16
2017-06-24T03:42:31.524Z,43.77
2017-06-24T03:43:31.552Z,43.67
2017-06-24T03:44:31.582Z,43.67
2017-06-24T03:45:31.609Z,43.77
2017-06-24T03:46:31.583Z,43.67
2017-06-24T03:47:31.667Z,43.58
2017-06-24T03:48:31.700Z,44.16
2017-06-24T03:49:31.725Z,44.06
2017-06-24T03:50:31.757Z,43.77
2017-06-24T03:51:32.043Z,43.67
2017-06-24T03:52:31.819Z,43.48
2017-06-24T03:53:31.880Z,43.67
2017-06-24T03:54:31.882Z,43.67
2017-06-24T03:55:31.893Z,43.58
2017-06-24T03:56:32.238Z,43.67
2017-06-24T03:57:31.972Z,43.67
2017-06-24T03:58:31.996Z,43.67
2017-06-24T03:59:32.027Z,43.67
2017-06-24T04:00:32.065Z,43.58
2017-06-24T04:01:32.390Z,43.87
2017-06-24T04:02:31.807Z,43.36
2017-06-24T04:03:32.176Z,43.77
2017-06-24T04:04:31.867Z,43.77
2017-06-24T04:05:31.893Z,43.58
2017-06-24T04:06:32.538Z,43.38
2017-06-24T04:07:31.960Z,43.77
2017-06-24T04:08:32.299Z,43.77
2017-06-24T04:09:32.017Z,43.58
2017-06-24T04:10:32.358Z,43.67
2017-06-24T04:11:32.690Z,43.67
2017-06-24T04:12:32.421Z,43.67
2017-06-24T04:13:32.451Z,43.67
2017-06-24T04:14:32.154Z,43.36
2017-06-24T04:15:32.511Z,43.58
2017-06-24T04:16:32.541Z,43.67
2017-06-24T04:17:32.254Z,43.58
2017-06-24T04:18:32.602Z,43.65
2017-06-24T04:19:32.630Z,43.55
2017-06-24T04:20:32.658Z,43.67
2017-06-24T04:21:32.688Z,43.48
2017-06-24T04:22:32.720Z,43.48
2017-06-24T04:23:32.744Z,43.36
2017-06-24T04:24:32.782Z,43.58
2017-06-24T04:25:32.810Z,43.19
2017-06-24T04:26:32.840Z,43.58
2017-06-24T04:27:32.866Z,43.36
2017-06-24T04:28:32.892Z,43.36
2017-06-24T04:29:32.926Z,43.36
2017-06-24T04:30:32.642Z,43.36
2017-06-24T04:31:32.672Z,43.36
2017-06-24T04:32:33.013Z,43.36
2017-06-24T04:33:32.737Z,43.16
2017-06-24T04:34:32.770Z,42.97
2017-06-24T04:35:33.103Z,43.26
2017-06-24T04:36:32.827Z,43.46
2017-06-24T04:37:32.851Z,42.97
2017-06-24T04:38:33.196Z,42.97
2017-06-24T04:39:32.914Z,43.29
2017-06-24T04:40:32.943Z,43.07
2017-06-24T04:41:32.969Z,43.16
2017-06-24T04:42:33.313Z,43.16
2017-06-24T04:43:33.343Z,42.87
2017-06-24T04:44:33.063Z,42.87
2017-06-24T04:45:33.403Z,43.75
2017-06-24T04:46:33.440Z,43.36
2017-06-24T04:47:33.498Z,43.46
2017-06-24T04:48:33.181Z,43.16
2017-06-24T04:49:33.523Z,43.46
2017-06-24T04:50:33.238Z,43.07
2017-06-24T04:51:33.580Z,43.07
2017-06-24T04:52:33.604Z,43.38
2017-06-24T04:53:33.330Z,43.07
2017-06-24T04:54:33.678Z,43.36
2017-06-24T04:55:33.704Z,42.97
2017-06-24T04:56:33.736Z,43.26
2017-06-24T04:57:33.773Z,42.97
2017-06-24T04:58:33.797Z,43.95
2017-06-24T04:59:33.510Z,43.46
2017-06-24T05:00:33.856Z,43.85
2017-06-24T05:01:33.879Z,43.36
2017-06-24T05:02:33.917Z,43.16
2017-06-24T05:03:33.638Z,43.38
2017-06-24T05:04:33.970Z,43.46
2017-06-24T05:05:33.991Z,43.36
2017-06-24T05:06:34.021Z,43.26
2017-06-24T05:07:34.061Z,43.19
2017-06-24T05:08:34.077Z,43.55
2017-06-24T05:09:33.811Z,43.46
2017-06-24T05:10:33.835Z,43.55
2017-06-24T05:11:33.873Z,43.55
2017-06-24T05:12:34.154Z,43.65
2017-06-24T05:13:33.925Z,43.67
2017-06-24T05:14:34.271Z,43.46
2017-06-24T05:15:34.299Z,42.99
2017-06-24T05:16:34.332Z,42.97
2017-06-24T05:17:34.618Z,42.97
2017-06-24T05:18:34.077Z,42.87
2017-06-24T05:19:34.415Z,43.07
2017-06-24T05:20:34.135Z,42.9
2017-06-24T05:21:34.481Z,42.7
2017-06-24T05:22:34.767Z,42.58
2017-06-24T05:23:34.229Z,42.87
2017-06-24T05:24:34.575Z,42.58
2017-06-24T05:25:34.594Z,42.78
2017-06-24T05:26:34.630Z,42.49
2017-06-24T05:27:34.957Z,42.49
2017-06-24T05:28:34.374Z,42.68
2017-06-24T05:29:34.715Z,42.49
2017-06-24T05:30:34.751Z,42.68
2017-06-24T05:31:34.776Z,42.78
2017-06-24T05:32:35.106Z,42.49
2017-06-24T05:33:34.843Z,42.78
2017-06-24T05:34:34.868Z,42.87
2017-06-24T05:35:34.897Z,42.78
2017-06-24T05:36:34.925Z,42.78
2017-06-24T05:37:34.945Z,42.58
2017-06-24T05:38:34.987Z,42.78
2017-06-24T05:39:35.023Z,42.68
2017-06-24T05:40:35.040Z,42.58
2017-06-24T05:41:35.076Z,42.87
2017-06-24T05:42:35.362Z,42.49
2017-06-24T05:43:35.139Z,42.49
2017-06-24T05:44:34.853Z,42.58
2017-06-24T05:45:35.189Z,42.58
2017-06-24T05:46:35.233Z,42.39
2017-06-24T05:47:35.502Z,42.68
2017-06-24T05:48:35.276Z,42.49
2017-06-24T05:49:35.003Z,42.58
2017-06-24T05:50:35.344Z,42.58
2017-06-24T05:51:35.069Z,42.68
2017-06-24T05:52:35.706Z,42.58
2017-06-24T05:53:35.118Z,42.1
2017-06-24T05:54:35.468Z,42.39
2017-06-24T05:55:35.180Z,42.68
2017-06-24T05:56:35.521Z,42.39
2017-06-24T05:57:35.556Z,42.39
2017-06-24T05:58:35.578Z,42.49
2017-06-24T05:59:35.300Z,41.61
2017-06-24T06:00:35.646Z,42.49
2017-06-24T06:01:35.674Z,42.29
2017-06-24T06:02:35.387Z,41.9
2017-06-24T06:03:35.735Z,42.29
2017-06-24T06:04:35.764Z,42.29
2017-06-24T06:05:35.797Z,41.8
2017-06-24T06:06:35.513Z,42
2017-06-24T06:07:35.850Z,41.8
2017-06-24T06:08:35.875Z,42
2017-06-24T06:09:35.916Z,42.19
2017-06-24T06:10:35.941Z,42.19
2017-06-24T06:11:35.971Z,41.71
2017-06-24T06:12:36.003Z,41.61
2017-06-24T06:13:36.040Z,41.61
2017-06-24T06:14:36.064Z,41.71
2017-06-24T06:15:35.773Z,41.8
2017-06-24T06:16:36.121Z,41.71
2017-06-24T06:17:36.159Z,41.42
2017-06-24T06:18:36.179Z,41.51
2017-06-24T06:19:36.213Z,41.61
2017-06-24T06:20:35.926Z,41.8
2017-06-24T06:21:35.961Z,41.22
2017-06-24T06:22:36.298Z,41.71
2017-06-24T06:23:36.332Z,41.51
2017-06-24T06:24:36.356Z,41.61
2017-06-24T06:25:36.389Z,41.42
2017-06-24T06:26:36.102Z,41.9
2017-06-24T06:27:36.450Z,41.51
2017-06-24T06:28:36.475Z,41.71
2017-06-24T06:29:36.504Z,41.59
2017-06-24T06:30:36.540Z,41.22
2017-06-24T06:31:36.574Z,41.9
2017-06-24T06:32:36.598Z,41.71
2017-06-24T06:33:36.628Z,41.51
2017-06-24T06:34:36.649Z,41.8
2017-06-24T06:35:36.689Z,41.61
2017-06-24T06:36:36.405Z,41.32
2017-06-24T06:37:36.440Z,41.22
2017-06-24T06:38:36.769Z,41.32
2017-06-24T06:39:36.804Z,40.93
2017-06-24T06:40:36.840Z,41.51
2017-06-24T06:41:36.865Z,41.42
2017-06-24T06:42:36.578Z,41.03
2017-06-24T06:43:36.611Z,41.51
2017-06-24T06:44:36.648Z,41.32
2017-06-24T06:45:36.986Z,41.42
2017-06-24T06:46:37.015Z,41.03
2017-06-24T06:47:37.044Z,40.93
2017-06-24T06:48:37.067Z,40.93
2017-06-24T06:49:37.097Z,41.13
2017-06-24T06:50:37.134Z,41.61
2017-06-24T06:51:37.158Z,41.13
2017-06-24T06:52:37.190Z,41.61
2017-06-24T06:53:37.161Z,41.51
2017-06-24T06:54:37.251Z,40.54
2017-06-24T06:55:37.281Z,41.22
2017-06-24T06:56:37.305Z,40.83
2017-06-24T06:57:37.344Z,40.73
2017-06-24T06:58:37.667Z,40.42
2017-06-24T06:59:37.401Z,40.81
2017-06-24T07:00:37.435Z,41.1
2017-06-24T07:01:37.465Z,41.01
2017-06-24T07:02:37.176Z,40.72
2017-06-24T07:03:37.773Z,40.93
2017-06-24T07:04:37.242Z,40.73
2017-06-24T07:05:37.577Z,41.01
2017-06-24T07:06:37.601Z,40.93
2017-06-24T07:07:37.635Z,41.03
2017-06-24T07:08:37.963Z,40.93
2017-06-24T07:09:37.389Z,40.93
2017-06-24T07:10:37.725Z,41.03
2017-06-24T07:11:37.446Z,40.93
2017-06-24T07:12:37.783Z,40.93
2017-06-24T07:13:38.119Z,41.13
2017-06-24T07:14:37.532Z,40.83
2017-06-24T07:15:37.870Z,41.22
2017-06-24T07:16:37.593Z,41.13
2017-06-24T07:17:37.943Z,40.34
2017-06-24T07:18:37.905Z,40.44
2017-06-24T07:19:37.683Z,40.34
2017-06-24T07:20:38.017Z,40.54
2017-06-24T07:21:38.054Z,40.73
2017-06-24T07:22:38.087Z,40.44
2017-06-24T07:23:38.367Z,40.44
2017-06-24T07:24:38.145Z,40.34
2017-06-24T07:25:38.178Z,40.44
2017-06-24T07:26:38.207Z,40.34
2017-06-24T07:27:38.239Z,40.25
2017-06-24T07:28:38.561Z,40.25
2017-06-24T07:29:38.284Z,40.25
2017-06-24T07:30:38.313Z,40.34
2017-06-24T07:31:38.351Z,40.44
2017-06-24T07:32:38.384Z,39.86
2017-06-24T07:33:38.663Z,39.96
2017-06-24T07:34:38.445Z,39.86
2017-06-24T07:35:38.478Z,39.57
2017-06-24T07:36:38.507Z,39.67
2017-06-24T07:37:38.535Z,39.76
2017-06-24T07:38:38.565Z,39.76
2017-06-24T07:39:38.596Z,39.18
2017-06-24T07:40:38.622Z,38.98
2017-06-24T07:41:38.643Z,39.37
2017-06-24T07:42:38.684Z,39.28
2017-06-24T07:43:38.438Z,38.79
2017-06-24T07:44:38.740Z,38.89
2017-06-24T07:45:38.461Z,39.28
2017-06-24T07:46:38.801Z,38.98
2017-06-24T07:47:38.816Z,39.47
2017-06-24T07:48:38.862Z,39.08
2017-06-24T07:49:38.891Z,39.18
2017-06-24T07:50:38.942Z,38.89
2017-06-24T07:51:38.992Z,38.79
2017-06-24T07:52:38.979Z,39.28
2017-06-24T07:53:39.008Z,38.98
2017-06-24T07:54:39.033Z,39.28
2017-06-24T07:55:39.065Z,39.28
2017-06-24T07:56:39.095Z,39.18
2017-06-24T07:57:38.817Z,39.18
2017-06-24T07:58:39.157Z,39.28
2017-06-24T07:59:39.186Z,38.98
2017-06-24T08:00:39.223Z,39.08
2017-06-24T08:01:39.247Z,38.79
2017-06-24T08:02:39.276Z,38.7
2017-06-24T08:03:39.302Z,38.31
2017-06-24T08:04:39.327Z,38.31
2017-06-24T08:05:39.053Z,37.82
2017-06-24T08:06:39.395Z,38.31
2017-06-24T08:07:39.104Z,38.4
2017-06-24T08:08:39.140Z,38.21
2017-06-24T08:09:39.484Z,38.4
2017-06-24T08:10:39.510Z,38.5
2017-06-24T08:11:39.543Z,38.01
2017-06-24T08:12:39.568Z,38.21
2017-06-24T08:13:39.604Z,38.4
2017-06-24T08:14:39.636Z,38.11
2017-06-24T08:15:39.667Z,38.31
2017-06-24T08:16:39.685Z,38.31
2017-06-24T08:17:39.722Z,38.21
2017-06-24T08:18:39.749Z,38.7
2017-06-24T08:19:39.779Z,38.11
2017-06-24T08:20:39.504Z,38.4
2017-06-24T08:21:39.531Z,38.6
2017-06-24T08:22:39.869Z,38.6
2017-06-24T08:23:39.897Z,38.7
2017-06-24T08:24:39.619Z,39.28
2017-06-24T08:25:39.968Z,38.7
2017-06-24T08:26:39.677Z,38.7
2017-06-24T08:27:39.705Z,38.5
2017-06-24T08:28:40.049Z,38.4
2017-06-24T08:29:39.770Z,38.21
2017-06-24T08:30:39.795Z,38.11
2017-06-24T08:31:39.819Z,38.4
2017-06-24T08:32:40.169Z,38.5
2017-06-24T08:33:40.201Z,38.11
2017-06-24T08:34:40.231Z,39.18
2017-06-24T08:35:40.259Z,38.4
2017-06-24T08:36:40.288Z,38.5
2017-06-24T08:37:39.997Z,38.31
2017-06-24T08:38:40.350Z,37.92
2017-06-24T08:39:40.378Z,42.68
2017-06-24T08:40:40.407Z,45.6
2017-06-24T08:41:40.124Z,44.14
2017-06-24T08:42:40.465Z,41.9
2017-06-24T08:43:40.526Z,40.34
2017-06-24T08:44:40.531Z,40.25
2017-06-24T08:45:40.555Z,39.18
2017-06-24T08:46:40.576Z,38.7
2017-06-24T08:47:40.614Z,38.89
2017-06-24T08:48:40.647Z,38.21
2017-06-24T08:49:40.672Z,38.21
2017-06-24T08:50:40.700Z,37.92
2017-06-24T08:51:40.420Z,37.92
2017-06-24T08:52:40.761Z,38.01
2017-06-24T08:53:40.785Z,37.62
2017-06-24T08:54:40.819Z,37.82
2017-06-24T08:55:40.851Z,37.82
2017-06-24T08:56:40.564Z,37.72
2017-06-24T08:57:40.904Z,37.92
2017-06-24T08:58:40.627Z,37.34
2017-06-24T08:59:40.978Z,37.52
2017-06-24T09:00:40.997Z,37.52
2017-06-24T09:01:41.033Z,37.34
2017-06-24T09:02:41.062Z,37.43
2017-06-24T09:03:41.088Z,37.84
2017-06-24T09:04:41.125Z,37.72
2017-06-24T09:05:41.165Z,37.45
2017-06-24T09:06:40.866Z,36.94
2017-06-24T09:07:41.213Z,37.35
2017-06-24T09:08:41.235Z,37.16
2017-06-24T09:09:41.562Z,36.96
2017-06-24T09:10:41.300Z,36.87
2017-06-24T09:11:41.325Z,36.38
2017-06-24T09:12:41.358Z,36.87
2017-06-24T09:13:41.387Z,36.67
2017-06-24T09:14:41.670Z,36.77
2017-06-24T09:15:41.134Z,36.38
2017-06-24T09:16:41.169Z,36.38
2017-06-24T09:17:41.510Z,36.77
2017-06-24T09:18:41.540Z,36.47
2017-06-24T09:19:41.871Z,36.67
2017-06-24T09:20:41.288Z,36.38
2017-06-24T09:21:41.626Z,36.67
2017-06-24T09:22:41.346Z,36.67
2017-06-24T09:23:41.694Z,36.67
2017-06-24T09:24:41.975Z,36.57
2017-06-24T09:25:41.752Z,36.57
2017-06-24T09:26:41.786Z,36.67
2017-06-24T09:27:41.819Z,36.38
2017-06-24T09:28:41.843Z,36.18
2017-06-24T09:29:42.121Z,36.08
2017-06-24T09:30:41.902Z,36.08
2017-06-24T09:31:41.618Z,35.99
2017-06-24T09:32:41.963Z,36.08
2017-06-24T09:33:41.991Z,35.89
2017-06-24T09:34:42.268Z,36.18
2017-06-24T09:35:42.046Z,35.89
2017-06-24T09:36:42.070Z,36.08
2017-06-24T09:37:41.799Z,35.89
2017-06-24T09:38:41.831Z,36.08
2017-06-24T09:39:42.471Z,36.18
2017-06-24T09:40:42.193Z,36.08
2017-06-24T09:41:42.243Z,35.99
2017-06-24T09:42:42.263Z,35.99
2017-06-24T09:43:42.291Z,36.08
2017-06-24T09:44:42.581Z,36.08
2017-06-24T09:45:42.351Z,35.7
2017-06-24T09:46:42.071Z,36.08
2017-06-24T09:47:42.104Z,35.99
2017-06-24T09:48:42.133Z,36.18
2017-06-24T09:49:42.165Z,36.08
2017-06-24T09:50:42.505Z,36.08
2017-06-24T09:51:42.534Z,36.08
2017-06-24T09:52:42.248Z,35.8
2017-06-24T09:53:42.592Z,36.18
2017-06-24T09:54:42.625Z,36.08
2017-06-24T09:55:42.343Z,36.08
2017-06-24T09:56:42.687Z,36.18
2017-06-24T09:57:42.716Z,36.18
2017-06-24T09:58:42.747Z,35.91
2017-06-24T09:59:42.777Z,36.1
2017-06-24T10:00:42.810Z,36
2017-06-24T10:01:42.833Z,36.1
2017-06-24T10:02:42.860Z,35.81
2017-06-24T10:03:42.901Z,35.81
2017-06-24T10:04:42.929Z,36.2
2017-06-24T10:05:42.953Z,36.1
2017-06-24T10:06:42.986Z,35.99
2017-06-24T10:07:43.008Z,36.2
2017-06-24T10:08:42.732Z,36.1
2017-06-24T10:09:43.085Z,36.1
2017-06-24T10:10:43.107Z,36.2
2017-06-24T10:11:43.132Z,36.1
2017-06-24T10:12:43.169Z,36
2017-06-24T10:13:43.197Z,36
2017-06-24T10:14:42.924Z,36.1
2017-06-24T10:15:43.256Z,36.1
2017-06-24T10:16:42.971Z,36.2
2017-06-24T10:17:43.321Z,36.2
2017-06-24T10:18:43.353Z,36.1
2017-06-24T10:19:43.376Z,36
2017-06-24T10:20:43.402Z,36.1
2017-06-24T10:21:43.441Z,36.1
2017-06-24T10:22:43.472Z,36.2
2017-06-24T10:23:43.505Z,36
2017-06-24T10:24:43.527Z,36.1
2017-06-24T10:25:43.242Z,36.1
2017-06-24T10:26:43.281Z,36.1
2017-06-24T10:27:43.316Z,36
2017-06-24T10:28:43.647Z,36
2017-06-24T10:29:43.681Z,36
2017-06-24T10:30:43.710Z,35.81
2017-06-24T10:31:43.744Z,36
2017-06-24T10:32:43.772Z,36.1
2017-06-24T10:33:43.804Z,36
2017-06-24T10:34:43.833Z,36
2017-06-24T10:35:43.554Z,36
2017-06-24T10:36:43.896Z,36
2017-06-24T10:37:43.921Z,36.1
2017-06-24T10:38:43.960Z,36.2
2017-06-24T10:39:43.674Z,35.93
2017-06-24T10:40:44.020Z,36.2
2017-06-24T10:41:44.043Z,36.2
2017-06-24T10:42:44.077Z,35.91
2017-06-24T10:43:44.105Z,35.93
2017-06-24T10:44:44.139Z,35.71
2017-06-24T10:45:44.159Z,36.1
2017-06-24T10:46:44.197Z,36.2
2017-06-24T10:47:44.229Z,35.91
2017-06-24T10:48:44.253Z,36.32
2017-06-24T10:49:44.287Z,35.73
2017-06-24T10:50:44.319Z,35.52
2017-06-24T10:51:44.344Z,35.71
2017-06-24T10:52:44.073Z,35.52
2017-06-24T10:53:44.411Z,35.53
2017-06-24T10:54:44.478Z,35.25
2017-06-24T10:55:44.480Z,35.63
2017-06-24T10:56:44.500Z,35.33
2017-06-24T10:57:44.535Z,35.25
2017-06-24T10:58:44.251Z,35.15
2017-06-24T10:59:44.278Z,35.25
2017-06-24T11:00:44.621Z,35.25
2017-06-24T11:01:44.652Z,35.25
2017-06-24T11:02:44.681Z,35.15
2017-06-24T11:03:44.402Z,35.13
2017-06-24T11:04:44.743Z,35.15
2017-06-24T11:05:44.779Z,35.25
2017-06-24T11:06:44.505Z,35.25
2017-06-24T11:07:44.856Z,35.34
2017-06-24T11:08:44.858Z,35.34
2017-06-24T11:09:44.892Z,35.25
2017-06-24T11:10:44.926Z,35.53
2017-06-24T11:11:44.956Z,35.25
2017-06-24T11:12:44.990Z,35.34
2017-06-24T11:13:45.022Z,34.86
2017-06-24T11:14:44.731Z,34.76
2017-06-24T11:15:45.080Z,34.95
2017-06-24T11:16:45.109Z,34.86
2017-06-24T11:17:45.139Z,34.86
2017-06-24T11:18:45.166Z,34.56
2017-06-24T11:19:45.198Z,35.44
2017-06-24T11:20:45.232Z,35.25
2017-06-24T11:21:45.262Z,35.15
2017-06-24T11:22:45.286Z,34.86
2017-06-24T11:23:45.323Z,35.15
2017-06-24T11:24:45.351Z,34.66
2017-06-24T11:25:45.375Z,35.05
2017-06-24T11:26:45.415Z,34.86
2017-06-24T11:27:45.446Z,35.44
2017-06-24T11:28:45.483Z,34.66
2017-06-24T11:29:45.506Z,35.53
2017-06-24T11:30:45.787Z,35.15
2017-06-24T11:31:45.565Z,34.56
2017-06-24T11:32:45.600Z,35.34
2017-06-24T11:33:45.618Z,34.76
2017-06-24T11:34:45.656Z,35.53
2017-06-24T11:35:45.932Z,34.66
2017-06-24T11:36:45.395Z,34.76
2017-06-24T11:37:45.761Z,34.86
2017-06-24T11:38:45.775Z,34.68
2017-06-24T11:39:45.492Z,34.66
2017-06-24T11:40:46.140Z,34.56
2017-06-24T11:41:45.870Z,34.39
2017-06-24T11:42:45.899Z,34.68
2017-06-24T11:43:45.619Z,34.88
2017-06-24T11:44:45.952Z,34.19
2017-06-24T11:45:46.304Z,34.29
2017-06-24T11:46:46.025Z,34.21
2017-06-24T11:47:46.057Z,34.01
2017-06-24T11:48:46.082Z,33.82
2017-06-24T11:49:46.125Z,33.92
2017-06-24T11:50:46.093Z,33.43
2017-06-24T11:51:45.869Z,33.43
2017-06-24T11:52:46.213Z,33.25
2017-06-24T11:53:45.926Z,33.04
2017-06-24T11:54:46.272Z,33.25
2017-06-24T11:55:46.549Z,32.96
2017-06-24T11:56:46.345Z,32.96
2017-06-24T11:57:46.371Z,32.76
2017-06-24T11:58:46.403Z,32.58
2017-06-24T11:59:46.432Z,32.78
2017-06-24T12:00:46.449Z,32.39
2017-06-24T12:01:46.490Z,32.09
2017-06-24T12:02:46.218Z,32.29
2017-06-24T12:03:46.570Z,32.4
2017-06-24T12:04:46.598Z,32.01
2017-06-24T12:05:46.919Z,31.74
2017-06-24T12:06:46.658Z,31.33
2017-06-24T12:07:46.683Z,31.45
2017-06-24T12:08:46.719Z,30.86
2017-06-24T12:09:46.760Z,30.87
2017-06-24T12:10:47.033Z,30.87
2017-06-24T12:11:46.821Z,30.48
2017-06-24T12:12:46.855Z,30.1
2017-06-24T12:13:46.572Z,29.81
2017-06-24T12:14:46.921Z,29.91
2017-06-24T12:15:47.191Z,29.44
2017-06-24T12:16:46.982Z,29.44
2017-06-24T12:17:47.019Z,29.55
2017-06-24T12:18:46.745Z,29.74
2017-06-24T12:19:47.088Z,29.94
2017-06-24T12:20:47.373Z,29.25
2017-06-24T12:21:46.847Z,29.17
2017-06-24T12:22:46.871Z,28.58
2017-06-24T12:23:47.217Z,28.68
2017-06-24T12:24:46.949Z,28.89
2017-06-24T12:25:47.581Z,28.2
2017-06-24T12:26:47.019Z,28.11
2017-06-24T12:27:47.047Z,28.31
2017-06-24T12:28:47.084Z,28.02
2017-06-24T12:29:47.432Z,27.63
2017-06-24T12:30:47.150Z,27.73
2017-06-24T12:31:47.183Z,27.74
2017-06-24T12:32:47.528Z,27.74
2017-06-24T12:33:47.565Z,27.64
2017-06-24T12:34:47.601Z,27.64
2017-06-24T12:35:47.633Z,27.45
2017-06-24T12:36:47.658Z,27.06
2017-06-24T12:37:47.700Z,27.15
2017-06-24T12:38:47.433Z,27.07
2017-06-24T12:39:47.774Z,27.07
2017-06-24T12:40:47.803Z,27.26
2017-06-24T12:41:47.844Z,27.36
2017-06-24T12:42:47.875Z,27.17
2017-06-24T12:43:47.910Z,26.58
2017-06-24T12:44:47.948Z,26.97
2017-06-24T12:45:47.674Z,26.87
2017-06-24T12:46:47.715Z,26.68
2017-06-24T12:47:48.052Z,26.58
2017-06-24T12:48:48.092Z,26.58
2017-06-24T12:49:48.119Z,26.4
2017-06-24T12:50:48.154Z,26.4
2017-06-24T12:51:48.199Z,26.4
2017-06-24T12:52:48.228Z,26.1
2017-06-24T12:53:48.261Z,26.2
2017-06-24T12:54:48.296Z,26.2
2017-06-24T12:55:48.015Z,26.2
2017-06-24T12:56:48.373Z,26.2
2017-06-24T12:57:48.153Z,26.1